sensor_id;sensor_type;location;lat;lon;timestamp;P1;durP1;ratioP1;P2;durP2;ratioP2
18677;SDS011;9469;51.114;13.914;2024-03-08T00:04:19;34.93;;;21.60;;
18677;SDS011;9469;51.114;13.914;2024-03-08T00:09:24;36.60;;;24.07;;
18677;SDS011;9469;51.114;13.914;2024-03-08T00:14:29;40.93;;;23.97;;
18677;SDS011;9469;51.114;13.914;2024-03-08T00:19:37;39.33;;;23.63;;
18677;SDS011;9469;51.114;13.914;2024-03-08T00:24:43;36.80;;;24.73;;
18677;SDS011;9469;51.114;13.914;2024-03-08T00:29:48;38.63;;;25.73;;
18677;SDS011;9469;51.114;13.914;2024-03-08T00:34:56;41.27;;;25.20;;
18677;SDS011;9469;51.114;13.914;2024-03-08T00:40:03;40.20;;;24.70;;
18677;SDS011;9469;51.114;13.914;2024-03-08T00:45:11;36.60;;;24.53;;
18677;SDS011;9469;51.114;13.914;2024-03-08T00:50:19;41.27;;;23.77;;
18677;SDS011;9469;51.114;13.914;2024-03-08T00:55:24;45.30;;;26.03;;
18677;SDS011;9469;51.114;13.914;2024-03-08T01:00:29;44.20;;;24.87;;
18677;SDS011;9469;51.114;13.914;2024-03-08T01:05:37;42.27;;;25.30;;
18677;SDS011;9469;51.114;13.914;2024-03-08T01:10:42;39.47;;;25.17;;
18677;SDS011;9469;51.114;13.914;2024-03-08T01:15:48;39.30;;;24.10;;
18677;SDS011;9469;51.114;13.914;2024-03-08T01:20:55;38.27;;;25.07;;
18677;SDS011;9469;51.114;13.914;2024-03-08T01:26:01;40.27;;;24.80;;
18677;SDS011;9469;51.114;13.914;2024-03-08T01:31:06;42.37;;;24.33;;
18677;SDS011;9469;51.114;13.914;2024-03-08T01:36:14;41.20;;;25.90;;
18677;SDS011;9469;51.114;13.914;2024-03-08T01:41:22;40.23;;;25.33;;
18677;SDS011;9469;51.114;13.914;2024-03-08T01:46:30;41.03;;;25.37;;
18677;SDS011;9469;51.114;13.914;2024-03-08T01:51:38;43.10;;;24.97;;
18677;SDS011;9469;51.114;13.914;2024-03-08T01:56:44;41.70;;;24.73;;
18677;SDS011;9469;51.114;13.914;2024-03-08T02:01:50;45.10;;;27.47;;
18677;SDS011;9469;51.114;13.914;2024-03-08T02:06:58;41.27;;;26.93;;
18677;SDS011;9469;51.114;13.914;2024-03-08T02:12:05;45.60;;;28.43;;
18677;SDS011;9469;51.114;13.914;2024-03-08T02:17:24;47.93;;;28.67;;
18677;SDS011;9469;51.114;13.914;2024-03-08T02:22:33;45.40;;;26.47;;
18677;SDS011;9469;51.114;13.914;2024-03-08T02:27:40;50.90;;;30.33;;
18677;SDS011;9469;51.114;13.914;2024-03-08T02:32:50;43.63;;;27.70;;
18677;SDS011;9469;51.114;13.914;2024-03-08T02:37:58;45.87;;;27.83;;
18677;SDS011;9469;51.114;13.914;2024-03-08T02:43:05;44.67;;;27.07;;
18677;SDS011;9469;51.114;13.914;2024-03-08T02:48:10;52.53;;;27.33;;
18677;SDS011;9469;51.114;13.914;2024-03-08T02:53:19;49.03;;;27.00;;
18677;SDS011;9469;51.114;13.914;2024-03-08T02:58:24;45.93;;;27.03;;
18677;SDS011;9469;51.114;13.914;2024-03-08T03:03:29;44.17;;;25.93;;
18677;SDS011;9469;51.114;13.914;2024-03-08T03:08:39;42.50;;;25.60;;
18677;SDS011;9469;51.114;13.914;2024-03-08T03:13:47;44.87;;;26.40;;
18677;SDS011;9469;51.114;13.914;2024-03-08T03:18:52;49.67;;;26.30;;
18677;SDS011;9469;51.114;13.914;2024-03-08T03:24:01;40.83;;;27.17;;
18677;SDS011;9469;51.114;13.914;2024-03-08T03:29:12;50.00;;;28.13;;
18677;SDS011;9469;51.114;13.914;2024-03-08T03:34:18;46.60;;;28.03;;
18677;SDS011;9469;51.114;13.914;2024-03-08T03:39:27;51.13;;;29.30;;
18677;SDS011;9469;51.114;13.914;2024-03-08T03:44:33;46.73;;;27.87;;
18677;SDS011;9469;51.114;13.914;2024-03-08T03:49:39;54.27;;;30.17;;
18677;SDS011;9469;51.114;13.914;2024-03-08T03:54:47;51.30;;;29.87;;
18677;SDS011;9469;51.114;13.914;2024-03-08T03:59:52;50.60;;;29.17;;
18677;SDS011;9469;51.114;13.914;2024-03-08T04:04:57;53.40;;;29.90;;
18677;SDS011;9469;51.114;13.914;2024-03-08T04:10:06;55.03;;;31.73;;
18677;SDS011;9469;51.114;13.914;2024-03-08T04:15:13;56.80;;;30.70;;
18677;SDS011;9469;51.114;13.914;2024-03-08T04:20:18;50.80;;;29.67;;
18677;SDS011;9469;51.114;13.914;2024-03-08T04:25:26;61.27;;;33.40;;
18677;SDS011;9469;51.114;13.914;2024-03-08T04:30:32;50.47;;;30.73;;
18677;SDS011;9469;51.114;13.914;2024-03-08T04:35:38;50.17;;;28.73;;
18677;SDS011;9469;51.114;13.914;2024-03-08T04:40:49;49.93;;;30.00;;
18677;SDS011;9469;51.114;13.914;2024-03-08T04:45:55;54.30;;;32.67;;
18677;SDS011;9469;51.114;13.914;2024-03-08T04:51:00;53.23;;;30.80;;
18677;SDS011;9469;51.114;13.914;2024-03-08T04:56:08;53.67;;;30.30;;
18677;SDS011;9469;51.114;13.914;2024-03-08T05:01:13;53.40;;;30.63;;
18677;SDS011;9469;51.114;13.914;2024-03-08T05:06:20;56.07;;;32.97;;
18677;SDS011;9469;51.114;13.914;2024-03-08T05:11:28;54.67;;;33.33;;
18677;SDS011;9469;51.114;13.914;2024-03-08T05:16:33;56.83;;;30.47;;
18677;SDS011;9469;51.114;13.914;2024-03-08T05:21:42;58.20;;;31.50;;
18677;SDS011;9469;51.114;13.914;2024-03-08T05:26:51;64.57;;;33.50;;
18677;SDS011;9469;51.114;13.914;2024-03-08T05:31:56;60.30;;;32.57;;
18677;SDS011;9469;51.114;13.914;2024-03-08T05:37:03;57.47;;;34.70;;
18677;SDS011;9469;51.114;13.914;2024-03-08T05:42:11;59.33;;;33.03;;
18677;SDS011;9469;51.114;13.914;2024-03-08T05:47:16;63.33;;;36.80;;
18677;SDS011;9469;51.114;13.914;2024-03-08T05:52:22;59.30;;;34.97;;
18677;SDS011;9469;51.114;13.914;2024-03-08T05:57:30;61.10;;;35.67;;
18677;SDS011;9469;51.114;13.914;2024-03-08T06:02:35;63.60;;;35.17;;
18677;SDS011;9469;51.114;13.914;2024-03-08T06:07:43;62.37;;;35.27;;
18677;SDS011;9469;51.114;13.914;2024-03-08T06:12:51;62.10;;;35.63;;
18677;SDS011;9469;51.114;13.914;2024-03-08T06:17:57;61.23;;;35.37;;
18677;SDS011;9469;51.114;13.914;2024-03-08T06:23:03;59.67;;;35.43;;
18677;SDS011;9469;51.114;13.914;2024-03-08T06:28:15;61.17;;;34.37;;
18677;SDS011;9469;51.114;13.914;2024-03-08T06:33:22;59.77;;;33.80;;
18677;SDS011;9469;51.114;13.914;2024-03-08T06:38:32;65.00;;;33.50;;
18677;SDS011;9469;51.114;13.914;2024-03-08T06:43:41;56.33;;;33.30;;
18677;SDS011;9469;51.114;13.914;2024-03-08T06:48:47;54.73;;;32.40;;
18677;SDS011;9469;51.114;13.914;2024-03-08T06:53:53;56.53;;;33.00;;
18677;SDS011;9469;51.114;13.914;2024-03-08T06:59:01;49.13;;;31.83;;
18677;SDS011;9469;51.114;13.914;2024-03-08T07:04:23;51.27;;;30.03;;
18677;SDS011;9469;51.114;13.914;2024-03-08T07:09:31;48.37;;;32.07;;
18677;SDS011;9469;51.114;13.914;2024-03-08T07:14:48;47.73;;;31.63;;
18677;SDS011;9469;51.114;13.914;2024-03-08T07:19:59;43.37;;;29.43;;
18677;SDS011;9469;51.114;13.914;2024-03-08T07:25:18;45.00;;;30.30;;
18677;SDS011;9469;51.114;13.914;2024-03-08T07:30:43;43.97;;;30.27;;
18677;SDS011;9469;51.114;13.914;2024-03-08T07:36:11;45.60;;;28.13;;
18677;SDS011;9469;51.114;13.914;2024-03-08T07:41:20;45.37;;;28.60;;
18677;SDS011;9469;51.114;13.914;2024-03-08T07:46:40;42.33;;;28.43;;
18677;SDS011;9469;51.114;13.914;2024-03-08T07:51:45;41.37;;;27.77;;
18677;SDS011;9469;51.114;13.914;2024-03-08T07:56:51;37.33;;;28.00;;
18677;SDS011;9469;51.114;13.914;2024-03-08T08:01:59;44.43;;;29.17;;
18677;SDS011;9469;51.114;13.914;2024-03-08T08:07:11;38.03;;;26.63;;
18677;SDS011;9469;51.114;13.914;2024-03-08T08:12:16;37.83;;;25.33;;
18677;SDS011;9469;51.114;13.914;2024-03-08T08:17:34;34.07;;;24.30;;
18677;SDS011;9469;51.114;13.914;2024-03-08T08:22:40;38.30;;;25.30;;
18677;SDS011;9469;51.114;13.914;2024-03-08T08:27:49;33.67;;;24.40;;
18677;SDS011;9469;51.114;13.914;2024-03-08T08:32:58;35.70;;;24.27;;
18677;SDS011;9469;51.114;13.914;2024-03-08T08:38:15;37.20;;;25.17;;
18677;SDS011;9469;51.114;13.914;2024-03-08T08:43:22;33.37;;;22.77;;
18677;SDS011;9469;51.114;13.914;2024-03-08T08:48:34;38.03;;;25.20;;
18677;SDS011;9469;51.114;13.914;2024-03-08T08:53:43;35.33;;;24.20;;
18677;SDS011;9469;51.114;13.914;2024-03-08T08:58:54;36.20;;;23.33;;
18677;SDS011;9469;51.114;13.914;2024-03-08T09:04:03;33.50;;;24.53;;
18677;SDS011;9469;51.114;13.914;2024-03-08T09:09:10;33.80;;;22.43;;
18677;SDS011;9469;51.114;13.914;2024-03-08T09:14:17;36.47;;;24.37;;
18677;SDS011;9469;51.114;13.914;2024-03-08T09:19:32;35.67;;;22.63;;
18677;SDS011;9469;51.114;13.914;2024-03-08T09:25:04;30.87;;;21.90;;
18677;SDS011;9469;51.114;13.914;2024-03-08T09:30:13;28.00;;;18.83;;
18677;SDS011;9469;51.114;13.914;2024-03-08T09:35:21;26.97;;;19.73;;
18677;SDS011;9469;51.114;13.914;2024-03-08T09:40:41;24.30;;;17.73;;
18677;SDS011;9469;51.114;13.914;2024-03-08T09:45:49;26.40;;;19.30;;
18677;SDS011;9469;51.114;13.914;2024-03-08T09:51:09;26.83;;;17.83;;
18677;SDS011;9469;51.114;13.914;2024-03-08T09:56:17;25.37;;;19.47;;
18677;SDS011;9469;51.114;13.914;2024-03-08T10:01:23;23.00;;;17.00;;
18677;SDS011;9469;51.114;13.914;2024-03-08T10:12:13;35.97;;;24.87;;
18677;SDS011;9469;51.114;13.914;2024-03-08T10:17:23;32.57;;;23.50;;
18677;SDS011;9469;51.114;13.914;2024-03-08T10:22:37;28.40;;;19.50;;
18677;SDS011;9469;51.114;13.914;2024-03-08T10:27:58;26.50;;;18.53;;
18677;SDS011;9469;51.114;13.914;2024-03-08T10:33:05;35.40;;;25.23;;
18677;SDS011;9469;51.114;13.914;2024-03-08T10:38:14;31.73;;;23.33;;
18677;SDS011;9469;51.114;13.914;2024-03-08T10:43:26;30.53;;;23.03;;
18677;SDS011;9469;51.114;13.914;2024-03-08T10:49:24;36.90;;;25.03;;
18677;SDS011;9469;51.114;13.914;2024-03-08T10:54:39;37.63;;;26.73;;
18677;SDS011;9469;51.114;13.914;2024-03-08T10:59:47;32.17;;;23.27;;
18677;SDS011;9469;51.114;13.914;2024-03-08T11:04:56;40.00;;;26.77;;
18677;SDS011;9469;51.114;13.914;2024-03-08T11:10:06;37.43;;;25.87;;
18677;SDS011;9469;51.114;13.914;2024-03-08T11:15:24;35.37;;;25.77;;
18677;SDS011;9469;51.114;13.914;2024-03-08T11:20:31;38.33;;;26.70;;
18677;SDS011;9469;51.114;13.914;2024-03-08T11:25:41;32.33;;;25.17;;
18677;SDS011;9469;51.114;13.914;2024-03-08T11:36:25;34.83;;;24.67;;
18677;SDS011;9469;51.114;13.914;2024-03-08T11:41:35;36.60;;;26.03;;
18677;SDS011;9469;51.114;13.914;2024-03-08T11:46:41;37.33;;;25.80;;
18677;SDS011;9469;51.114;13.914;2024-03-08T11:51:51;40.77;;;27.20;;
18677;SDS011;9469;51.114;13.914;2024-03-08T11:57:02;39.80;;;24.50;;
18677;SDS011;9469;51.114;13.914;2024-03-08T12:02:08;38.70;;;26.93;;
18677;SDS011;9469;51.114;13.914;2024-03-08T12:07:14;37.67;;;26.33;;
18677;SDS011;9469;51.114;13.914;2024-03-08T12:12:37;37.30;;;26.67;;
18677;SDS011;9469;51.114;13.914;2024-03-08T12:18:02;36.60;;;27.37;;
18677;SDS011;9469;51.114;13.914;2024-03-08T12:23:13;42.53;;;27.73;;
18677;SDS011;9469;51.114;13.914;2024-03-08T12:28:22;40.97;;;26.03;;
18677;SDS011;9469;51.114;13.914;2024-03-08T12:33:31;38.13;;;26.47;;
18677;SDS011;9469;51.114;13.914;2024-03-08T12:38:38;36.80;;;25.90;;
18677;SDS011;9469;51.114;13.914;2024-03-08T12:43:46;39.30;;;25.10;;
18677;SDS011;9469;51.114;13.914;2024-03-08T12:48:53;35.63;;;24.77;;
18677;SDS011;9469;51.114;13.914;2024-03-08T12:54:00;34.70;;;25.33;;
18677;SDS011;9469;51.114;13.914;2024-03-08T12:59:11;32.83;;;24.13;;
18677;SDS011;9469;51.114;13.914;2024-03-08T13:04:24;37.80;;;24.90;;
18677;SDS011;9469;51.114;13.914;2024-03-08T13:09:34;36.07;;;23.23;;
18677;SDS011;9469;51.114;13.914;2024-03-08T13:15:02;35.70;;;24.47;;
18677;SDS011;9469;51.114;13.914;2024-03-08T13:20:35;34.00;;;23.17;;
18677;SDS011;9469;51.114;13.914;2024-03-08T13:25:54;32.90;;;21.83;;
18677;SDS011;9469;51.114;13.914;2024-03-08T13:31:12;33.97;;;24.23;;
18677;SDS011;9469;51.114;13.914;2024-03-08T13:36:34;34.13;;;22.37;;
18677;SDS011;9469;51.114;13.914;2024-03-08T13:41:46;30.93;;;21.73;;
18677;SDS011;9469;51.114;13.914;2024-03-08T13:47:22;28.37;;;20.83;;
18677;SDS011;9469;51.114;13.914;2024-03-08T13:52:40;34.97;;;22.17;;
18677;SDS011;9469;51.114;13.914;2024-03-08T13:57:58;32.10;;;21.87;;
18677;SDS011;9469;51.114;13.914;2024-03-08T14:03:07;31.73;;;21.00;;
18677;SDS011;9469;51.114;13.914;2024-03-08T14:08:15;27.87;;;19.20;;
18677;SDS011;9469;51.114;13.914;2024-03-08T14:13:22;17.17;;;10.83;;
18677;SDS011;9469;51.114;13.914;2024-03-08T14:18:30;30.03;;;20.30;;
18677;SDS011;9469;51.114;13.914;2024-03-08T14:23:36;29.77;;;20.73;;
18677;SDS011;9469;51.114;13.914;2024-03-08T14:28:42;25.93;;;19.03;;
18677;SDS011;9469;51.114;13.914;2024-03-08T14:33:54;14.57;;;11.13;;
18677;SDS011;9469;51.114;13.914;2024-03-08T14:39:04;11.57;;;9.30;;
18677;SDS011;9469;51.114;13.914;2024-03-08T14:44:12;12.07;;;8.97;;
18677;SDS011;9469;51.114;13.914;2024-03-08T14:49:20;13.40;;;8.97;;
18677;SDS011;9469;51.114;13.914;2024-03-08T14:54:28;12.10;;;8.97;;
18677;SDS011;9469;51.114;13.914;2024-03-08T14:59:33;13.83;;;10.17;;
18677;SDS011;9469;51.114;13.914;2024-03-08T15:04:42;12.27;;;9.20;;
18677;SDS011;9469;51.114;13.914;2024-03-08T15:09:49;12.87;;;8.83;;
18677;SDS011;9469;51.114;13.914;2024-03-08T15:14:54;31.77;;;21.90;;
18677;SDS011;9469;51.114;13.914;2024-03-08T15:20:04;35.10;;;23.20;;
18677;SDS011;9469;51.114;13.914;2024-03-08T15:25:31;37.17;;;25.53;;
18677;SDS011;9469;51.114;13.914;2024-03-08T15:30:38;36.70;;;25.43;;
18677;SDS011;9469;51.114;13.914;2024-03-08T15:35:51;37.17;;;26.27;;
18677;SDS011;9469;51.114;13.914;2024-03-08T15:41:01;42.90;;;26.77;;
18677;SDS011;9469;51.114;13.914;2024-03-08T15:46:08;39.83;;;27.60;;
18677;SDS011;9469;51.114;13.914;2024-03-08T15:51:18;49.20;;;28.90;;
18677;SDS011;9469;51.114;13.914;2024-03-08T15:56:23;44.13;;;27.80;;
18677;SDS011;9469;51.114;13.914;2024-03-08T16:01:29;47.00;;;30.60;;
18677;SDS011;9469;51.114;13.914;2024-03-08T16:06:37;44.73;;;28.20;;
18677;SDS011;9469;51.114;13.914;2024-03-08T16:11:43;45.40;;;29.73;;
18677;SDS011;9469;51.114;13.914;2024-03-08T16:16:49;43.20;;;29.33;;
18677;SDS011;9469;51.114;13.914;2024-03-08T16:21:57;47.43;;;30.17;;
18677;SDS011;9469;51.114;13.914;2024-03-08T16:27:03;48.30;;;31.60;;
18677;SDS011;9469;51.114;13.914;2024-03-08T16:32:09;53.73;;;33.67;;
18677;SDS011;9469;51.114;13.914;2024-03-08T16:37:22;49.47;;;31.93;;
18677;SDS011;9469;51.114;13.914;2024-03-08T16:42:30;51.73;;;33.63;;
18677;SDS011;9469;51.114;13.914;2024-03-08T16:47:37;53.57;;;35.33;;
18677;SDS011;9469;51.114;13.914;2024-03-08T16:52:49;54.63;;;35.57;;
18677;SDS011;9469;51.114;13.914;2024-03-08T16:58:01;59.60;;;35.60;;
18677;SDS011;9469;51.114;13.914;2024-03-08T17:03:09;57.80;;;37.60;;
18677;SDS011;9469;51.114;13.914;2024-03-08T17:08:18;56.00;;;35.80;;
18677;SDS011;9469;51.114;13.914;2024-03-08T17:13:24;56.23;;;36.40;;
18677;SDS011;9469;51.114;13.914;2024-03-08T17:18:30;57.20;;;37.57;;
18677;SDS011;9469;51.114;13.914;2024-03-08T17:23:41;56.23;;;35.37;;
18677;SDS011;9469;51.114;13.914;2024-03-08T17:28:47;61.40;;;37.03;;
18677;SDS011;9469;51.114;13.914;2024-03-08T17:33:53;53.27;;;34.07;;
18677;SDS011;9469;51.114;13.914;2024-03-08T17:39:00;59.00;;;37.00;;
18677;SDS011;9469;51.114;13.914;2024-03-08T17:44:05;53.67;;;36.33;;
18677;SDS011;9469;51.114;13.914;2024-03-08T17:49:11;52.57;;;33.77;;
18677;SDS011;9469;51.114;13.914;2024-03-08T17:54:19;57.77;;;35.33;;
18677;SDS011;9469;51.114;13.914;2024-03-08T17:59:26;60.63;;;36.50;;
18677;SDS011;9469;51.114;13.914;2024-03-08T18:04:34;59.63;;;37.03;;
18677;SDS011;9469;51.114;13.914;2024-03-08T18:09:43;54.87;;;36.63;;
18677;SDS011;9469;51.114;13.914;2024-03-08T18:14:49;56.20;;;37.00;;
18677;SDS011;9469;51.114;13.914;2024-03-08T18:19:55;57.73;;;37.80;;
18677;SDS011;9469;51.114;13.914;2024-03-08T18:25:03;57.63;;;37.23;;
18677;SDS011;9469;51.114;13.914;2024-03-08T18:30:14;61.77;;;38.73;;
18677;SDS011;9469;51.114;13.914;2024-03-08T18:35:21;63.43;;;38.63;;
18677;SDS011;9469;51.114;13.914;2024-03-08T18:40:29;57.47;;;38.37;;
18677;SDS011;9469;51.114;13.914;2024-03-08T18:45:34;64.40;;;39.83;;
18677;SDS011;9469;51.114;13.914;2024-03-08T18:50:40;62.97;;;39.30;;
18677;SDS011;9469;51.114;13.914;2024-03-08T18:55:50;65.63;;;41.50;;
18677;SDS011;9469;51.114;13.914;2024-03-08T19:00:55;65.73;;;41.07;;
18677;SDS011;9469;51.114;13.914;2024-03-08T19:06:03;65.63;;;41.63;;
18677;SDS011;9469;51.114;13.914;2024-03-08T19:11:11;61.20;;;40.80;;
18677;SDS011;9469;51.114;13.914;2024-03-08T19:16:16;66.63;;;41.47;;
18677;SDS011;9469;51.114;13.914;2024-03-08T19:21:22;66.47;;;40.10;;
18677;SDS011;9469;51.114;13.914;2024-03-08T19:26:34;68.23;;;40.93;;
18677;SDS011;9469;51.114;13.914;2024-03-08T19:31:40;66.47;;;42.27;;
18677;SDS011;9469;51.114;13.914;2024-03-08T19:36:46;68.53;;;43.93;;
18677;SDS011;9469;51.114;13.914;2024-03-08T19:41:59;68.23;;;44.20;;
18677;SDS011;9469;51.114;13.914;2024-03-08T19:47:07;73.43;;;42.03;;
18677;SDS011;9469;51.114;13.914;2024-03-08T19:52:14;67.97;;;40.83;;
18677;SDS011;9469;51.114;13.914;2024-03-08T19:57:22;69.57;;;44.30;;
18677;SDS011;9469;51.114;13.914;2024-03-08T20:02:31;73.13;;;42.93;;
18677;SDS011;9469;51.114;13.914;2024-03-08T20:07:36;64.73;;;39.33;;
18677;SDS011;9469;51.114;13.914;2024-03-08T20:12:44;60.53;;;38.80;;
18677;SDS011;9469;51.114;13.914;2024-03-08T20:17:49;74.17;;;36.50;;
18677;SDS011;9469;51.114;13.914;2024-03-08T20:22:55;65.77;;;36.57;;
18677;SDS011;9469;51.114;13.914;2024-03-08T20:28:05;50.37;;;32.87;;
18677;SDS011;9469;51.114;13.914;2024-03-08T20:33:13;39.33;;;25.40;;
18677;SDS011;9469;51.114;13.914;2024-03-08T20:38:18;25.70;;;17.53;;
18677;SDS011;9469;51.114;13.914;2024-03-08T20:43:33;22.00;;;13.93;;
18677;SDS011;9469;51.114;13.914;2024-03-08T20:49:03;23.50;;;13.47;;
18677;SDS011;9469;51.114;13.914;2024-03-08T20:54:09;20.20;;;13.80;;
18677;SDS011;9469;51.114;13.914;2024-03-08T20:59:19;19.53;;;11.90;;
18677;SDS011;9469;51.114;13.914;2024-03-08T21:04:24;22.83;;;13.00;;
18677;SDS011;9469;51.114;13.914;2024-03-08T21:09:33;20.23;;;12.37;;
18677;SDS011;9469;51.114;13.914;2024-03-08T21:14:41;21.83;;;14.17;;
18677;SDS011;9469;51.114;13.914;2024-03-08T21:19:46;18.67;;;13.70;;
18677;SDS011;9469;51.114;13.914;2024-03-08T21:24:52;21.13;;;13.50;;
18677;SDS011;9469;51.114;13.914;2024-03-08T21:29:59;21.13;;;13.80;;
18677;SDS011;9469;51.114;13.914;2024-03-08T21:35:06;20.70;;;13.37;;
18677;SDS011;9469;51.114;13.914;2024-03-08T21:40:12;20.67;;;13.37;;
18677;SDS011;9469;51.114;13.914;2024-03-08T21:45:29;20.20;;;13.80;;
18677;SDS011;9469;51.114;13.914;2024-03-08T21:50:38;21.90;;;13.33;;
18677;SDS011;9469;51.114;13.914;2024-03-08T21:55:43;21.57;;;13.60;;
18677;SDS011;9469;51.114;13.914;2024-03-08T22:00:52;22.47;;;14.57;;
18677;SDS011;9469;51.114;13.914;2024-03-08T22:05:57;20.17;;;13.47;;
18677;SDS011;9469;51.114;13.914;2024-03-08T22:11:06;22.83;;;13.33;;
18677;SDS011;9469;51.114;13.914;2024-03-08T22:16:14;21.27;;;13.03;;
18677;SDS011;9469;51.114;13.914;2024-03-08T22:21:19;22.23;;;13.00;;
18677;SDS011;9469;51.114;13.914;2024-03-08T22:26:24;22.27;;;13.03;;
18677;SDS011;9469;51.114;13.914;2024-03-08T22:31:34;21.90;;;13.20;;
18677;SDS011;9469;51.114;13.914;2024-03-08T22:36:41;23.07;;;14.30;;
18677;SDS011;9469;51.114;13.914;2024-03-08T22:41:47;23.43;;;14.03;;
18677;SDS011;9469;51.114;13.914;2024-03-08T22:46:54;22.00;;;14.50;;
18677;SDS011;9469;51.114;13.914;2024-03-08T22:52:00;24.97;;;15.20;;
18677;SDS011;9469;51.114;13.914;2024-03-08T22:57:05;22.57;;;13.90;;
18677;SDS011;9469;51.114;13.914;2024-03-08T23:02:13;21.00;;;14.07;;
18677;SDS011;9469;51.114;13.914;2024-03-08T23:07:21;23.13;;;14.03;;
18677;SDS011;9469;51.114;13.914;2024-03-08T23:12:26;23.90;;;14.73;;
18677;SDS011;9469;51.114;13.914;2024-03-08T23:17:37;27.23;;;15.17;;
18677;SDS011;9469;51.114;13.914;2024-03-08T23:22:46;23.87;;;14.73;;
18677;SDS011;9469;51.114;13.914;2024-03-08T23:27:53;24.00;;;13.70;;
18677;SDS011;9469;51.114;13.914;2024-03-08T23:33:02;18.13;;;13.97;;
18677;SDS011;9469;51.114;13.914;2024-03-08T23:38:08;22.93;;;14.60;;
18677;SDS011;9469;51.114;13.914;2024-03-08T23:43:13;25.17;;;14.63;;
18677;SDS011;9469;51.114;13.914;2024-03-08T23:48:21;20.63;;;14.27;;
18677;SDS011;9469;51.114;13.914;2024-03-08T23:53:28;21.47;;;15.10;;
18677;SDS011;9469;51.114;13.914;2024-03-08T23:58:33;21.50;;;13.93;;
